Time;durP1;ratioP1;P1;durP2;ratioP2;P2;SDS_P1;SDS_P2;PMS_P1;PMS_P2;Temp;Humidity;BMP_temperature;BMP_pressure;BME280_temperature;BME280_humidity;BME280_pressure;Samples;Min_cycle;Max_cycle;Signal;HPM_P1;HPM_P2
2023/02/24 00:00:32;;;;;;;41.90;27.20;;;;;;;3.82;87.41;98692.77;448831;1256;144733;-64
2023/02/24 00:10:38;;;;;;;42.30;30.00;;;;;;;3.95;87.82;98675.34;448019;1257;141672;-64
2023/02/24 00:20:44;;;;;;;41.70;27.30;;;;;;;4.09;88.65;98663.36;448866;1257;143934;-64
2023/02/24 00:30:49;;;;;;;42.00;28.40;;;;;;;4.22;89.02;98644.55;448442;1257;199403;-65
2023/02/24 00:40:55;;;;;;;44.10;26.90;;;;;;;4.30;89.35;98634.21;449172;1255;141993;-64
2023/02/24 00:51:06;;;;;;;42.50;29.50;;;;;;;4.33;89.40;98624.16;449195;1256;142142;-64
2023/02/24 01:01:16;;;;;;;39.70;27.70;;;;;;;4.35;89.72;98618.57;448447;1256;142771;-64
2023/02/24 01:21:59;;;;;;;38.40;28.10;;;;;;;4.44;90.59;98591.02;448422;1256;144526;-64
2023/02/24 01:32:04;;;;;;;;;;;;;;;4.51;91.35;98582.16;447427;1254;141781;-63
2023/02/24 01:42:18;;;;;;;35.60;25.80;;;;;;;4.58;91.72;98576.57;449511;1257;128890;-63
2023/02/24 01:52:29;;;;;;;44.50;28.60;;;;;;;4.66;92.42;98557.94;440743;1257;144484;-63
2023/02/24 02:02:35;;;;;;;50.90;30.50;;;;;;;4.73;93.00;98547.12;436010;1256;141931;-63
2023/02/24 02:12:44;;;;;;;45.10;30.40;;;;;;;4.72;94.04;98539.89;448512;1256;142295;-63
2023/02/24 02:23:11;;;;;;;41.00;30.20;;;;;;;4.71;95.03;98525.90;449170;1254;142063;-63
2023/02/24 02:33:51;;;;;;;38.80;28.40;;;;;;;4.72;96.39;98512.83;449147;1256;141986;-63
2023/02/24 02:44:08;;;;;;;43.10;30.40;;;;;;;4.72;96.75;98504.70;449013;1256;198358;-63
2023/02/24 02:54:21;;;;;;;39.80;26.40;;;;;;;4.73;97.16;98500.65;449398;1258;145177;-63
2023/02/24 03:04:29;;;;;;;43.20;28.90;;;;;;;4.74;97.97;98492.63;449541;1253;142160;-64
2023/02/24 03:14:38;;;;;;;44.00;30.10;;;;;;;4.78;98.58;98483.56;450296;1253;142119;-64
2023/02/24 03:24:45;;;;;;;37.30;28.10;;;;;;;4.80;99.31;98476.52;448073;1254;145280;-64
2023/02/24 03:34:55;;;;;;;40.90;30.00;;;;;;;4.80;99.90;98465.73;450312;1253;141848;-64
2023/02/24 03:45:01;;;;;;;38.00;28.20;;;;;;;4.80;100.00;98459.68;450331;1254;141403;-64
2023/02/24 03:55:16;;;;;;;43.00;29.20;;;;;;;4.80;100.00;98448.27;449625;1253;144041;-64
2023/02/24 04:05:27;;;;;;;40.10;30.30;;;;;;;4.78;100.00;98437.94;450443;1253;142863;-64
2023/02/24 04:15:38;;;;;;;41.00;29.10;;;;;;;4.77;100.00;98425.71;450245;1254;141794;-64
2023/02/24 04:25:47;;;;;;;41.60;30.10;;;;;;;4.77;100.00;98412.51;449895;1253;197467;-63
2023/02/24 04:35:53;;;;;;;39.90;29.50;;;;;;;4.78;100.00;98399.78;450253;1253;142644;-62
2023/02/24 04:45:59;;;;;;;42.60;29.20;;;;;;;4.77;100.00;98386.51;449065;1254;145807;-63
2023/02/24 04:56:07;;;;;;;40.00;29.20;;;;;;;4.76;100.00;98370.58;449701;1254;142851;-63
2023/02/24 05:06:17;;;;;;;46.10;27.70;;;;;;;4.78;100.00;98359.41;449524;1253;142201;-63
2023/02/24 05:16:23;;;;;;;38.00;27.20;;;;;;;4.78;100.00;98347.10;449143;1253;141702;-63
2023/02/24 05:26:30;;;;;;;39.50;28.80;;;;;;;4.79;100.00;98335.26;449654;1254;142728;-64
2023/02/24 05:36:39;;;;;;;37.00;27.50;;;;;;;4.81;100.00;98331.51;449760;1253;141756;-64
2023/02/24 05:46:48;;;;;;;33.60;24.20;;;;;;;4.83;100.00;98328.27;449816;1252;210908;-64
2023/02/24 05:56:55;;;;;;;29.70;22.90;;;;;;;4.84;100.00;98325.09;450271;1253;142755;-64
2023/02/24 06:07:02;;;;;;;;;;;;;;;4.86;100.00;98316.98;449597;1252;141310;-63
2023/02/24 06:17:08;;;;;;;28.50;21.30;;;;;;;4.87;100.00;98308.77;450524;1252;129918;-63
2023/02/24 06:27:16;;;;;;;32.60;24.30;;;;;;;4.89;100.00;98308.45;450109;1252;142552;-64
2023/02/24 06:37:22;;;;;;;29.30;23.70;;;;;;;4.92;100.00;98300.17;449204;1253;143246;-64
2023/02/24 06:47:28;;;;;;;37.10;25.60;;;;;;;4.95;100.00;98299.10;449878;1253;143680;-65
2023/02/24 06:57:34;;;;;;;33.10;26.30;;;;;;;5.00;100.00;98295.84;450119;1252;145032;-64
2023/02/24 07:07:44;;;;;;;25.40;19.90;;;;;;;5.04;100.00;98282.91;449811;1252;211634;-64
2023/02/24 07:17:53;;;;;;;29.00;20.20;;;;;;;5.13;100.00;98273.73;450354;1252;143204;-64
2023/02/24 07:28:00;;;;;;;28.30;20.10;;;;;;;5.25;100.00;98270.55;449613;1252;144979;-63
2023/02/24 07:38:06;;;;;;;23.80;19.30;;;;;;;5.27;100.00;98263.30;450378;1252;142784;-63
2023/02/24 07:48:13;;;;;;;24.60;18.30;;;;;;;5.26;100.00;98257.47;449899;1252;145050;-63
2023/02/24 07:58:19;;;;;;;29.20;20.00;;;;;;;5.26;100.00;98245.84;449508;1252;151348;-63
2023/02/24 08:08:25;;;;;;;26.00;20.70;;;;;;;5.32;100.00;98240.56;450365;1252;146348;-63
2023/02/24 08:18:36;;;;;;;29.60;22.20;;;;;;;5.37;100.00;98232.80;450332;1252;143244;-64
2023/02/24 08:28:42;;;;;;;29.70;21.80;;;;;;;5.44;100.00;98228.86;449819;1252;197597;-63
2023/02/24 08:38:50;;;;;;;26.40;20.30;;;;;;;5.47;100.00;98220.89;449958;1252;143988;-63
2023/02/24 08:48:59;;;;;;;28.40;21.70;;;;;;;5.50;100.00;98211.81;449095;1253;143233;-64
2023/02/24 08:59:06;;;;;;;28.80;20.40;;;;;;;5.56;100.00;98203.15;449881;1253;142207;-63
2023/02/24 09:09:19;;;;;;;26.90;19.20;;;;;;;5.63;100.00;98190.70;449768;1253;142289;-64
2023/02/24 09:20:14;;;;;;;14.80;11.30;;;;;;;5.66;100.00;98193.77;449071;1253;147404;-64
2023/02/24 09:30:24;;;;;;;11.70;7.50;;;;;;;5.47;100.00;98193.33;449907;1253;141246;-64
2023/02/24 09:51:02;;;;;;;13.80;9.00;;;;;;;5.42;100.00;98191.54;449889;1253;141700;-64
2023/02/24 10:01:32;;;;;;;16.80;10.00;;;;;;;5.60;100.00;98181.86;449148;1253;144221;-63
2023/02/24 10:11:40;;;;;;;12.70;9.80;;;;;;;5.68;100.00;98174.07;449840;1253;142813;-64
2023/02/24 10:22:01;;;;;;;13.50;9.60;;;;;;;5.82;100.00;98162.17;449155;1253;195317;-64
2023/02/24 10:32:22;;;;;;;19.70;12.40;;;;;;;6.00;100.00;98153.70;449937;1253;142285;-64
2023/02/24 10:42:33;;;;;;;24.20;12.60;;;;;;;5.90;100.00;98140.79;449909;1253;142469;-64
2023/02/24 11:03:24;;;;;;;22.50;15.40;;;;;;;6.26;100.00;98106.11;436804;1256;141844;-64
2023/02/24 11:24:04;;;;;;;29.70;19.00;;;;;;;5.75;100.00;98072.86;449868;1253;143565;-65
2023/02/24 11:34:18;;;;;;;23.90;15.30;;;;;;;5.73;100.00;98060.02;449222;1253;145666;-63
2023/02/24 11:44:30;;;;;;;23.30;13.90;;;;;;;5.94;100.00;98043.11;449877;1253;142902;-64
2023/02/24 11:54:42;;;;;;;30.70;20.30;;;;;;;6.10;100.00;98037.02;447307;1252;141806;-63
2023/02/24 12:04:56;;;;;;;24.40;16.60;;;;;;;6.48;100.00;98025.96;449822;1252;197611;-63
2023/02/24 12:15:10;;;;;;;20.70;14.90;;;;;;;6.94;100.00;98010.27;450284;1252;144133;-63
2023/02/24 12:25:19;;;;;;;18.40;14.00;;;;;;;7.20;99.88;97995.67;449591;1252;142730;-65
2023/02/24 12:35:33;;;;;;;16.50;12.30;;;;;;;7.17;98.44;97980.73;442255;1253;142089;-64
2023/02/24 12:45:49;;;;;;;18.80;12.50;;;;;;;6.96;98.28;97964.38;450316;1252;142524;-64
2023/02/24 12:56:05;;;;;;;18.20;12.80;;;;;;;7.15;97.43;97949.55;449860;1253;197316;-65
2023/02/24 13:06:21;;;;;;;11.10;8.80;;;;;;;7.19;97.54;97921.98;450252;1253;144719;-64
2023/02/24 13:16:32;;;;;;;12.40;9.10;;;;;;;6.98;95.99;97904.89;449523;1253;141458;-65
2023/02/24 13:26:38;;;;;;;9.30;6.10;;;;;;;6.98;95.00;97902.97;450314;1253;142399;-65
2023/02/24 13:36:49;;;;;;;9.30;6.80;;;;;;;6.56;94.48;97904.90;449489;1253;141452;-64
2023/02/24 13:47:22;;;;;;;9.00;6.40;;;;;;;6.42;94.70;97904.01;450266;1252;142074;-64
2023/02/24 13:57:47;;;;;;;10.80;7.60;;;;;;;6.22;94.44;97892.11;450382;1253;143989;-63
2023/02/24 14:07:54;;;;;;;12.20;8.60;;;;;;;6.12;95.03;97877.36;449851;1253;142805;-64
2023/02/24 14:18:02;;;;;;;12.30;9.40;;;;;;;6.11;95.66;97868.56;450259;1253;141764;-64
2023/02/24 14:28:20;;;;;;;13.30;9.30;;;;;;;6.03;95.93;97859.21;445138;1253;142676;-66
2023/02/24 14:38:29;;;;;;;;;;;;;;;5.86;96.03;97853.35;450276;1253;141955;-65
2023/02/24 14:48:36;;;;;;;11.20;8.80;;;;;;;5.71;95.88;97842.94;450525;1253;127826;-63
2023/02/24 14:58:49;;;;;;;10.90;7.50;;;;;;;5.66;95.80;97828.16;449785;1253;207681;-65
2023/02/24 15:09:00;;;;;;;10.90;7.40;;;;;;;5.50;95.65;97820.80;450304;1253;141440;-65
2023/02/24 15:19:21;;;;;;;14.20;9.30;;;;;;;5.31;96.00;97806.89;449610;1253;142008;-63
2023/02/24 15:29:29;;;;;;;14.60;10.10;;;;;;;5.15;96.40;97790.82;450441;1252;142587;-63
2023/02/24 15:39:35;;;;;;;11.10;9.30;;;;;;;5.09;96.97;97782.89;450267;1252;143541;-63
2023/02/24 15:49:41;;;;;;;10.20;7.90;;;;;;;5.04;96.75;97783.92;449850;1252;205613;-63
2023/02/24 15:59:47;;;;;;;13.70;10.20;;;;;;;4.92;95.98;97771.78;450309;1253;142945;-63
2023/02/24 16:09:55;;;;;;;16.80;11.50;;;;;;;4.80;95.77;97766.39;449578;1253;144108;-63
2023/02/24 16:20:01;;;;;;;12.90;9.90;;;;;;;4.69;95.48;97754.45;450379;1253;142547;-63
2023/02/24 16:30:15;;;;;;;20.80;11.70;;;;;;;4.58;95.79;97751.20;450386;1253;144694;-64
2023/02/24 16:40:24;;;;;;;14.50;8.40;;;;;;;4.39;95.55;97758.91;449588;1253;143401;-63
2023/02/24 16:50:33;;;;;;;14.70;8.90;;;;;;;4.32;95.83;97746.90;450448;1253;145087;-63
2023/02/24 17:00:40;;;;;;;10.80;8.90;;;;;;;4.18;95.23;97731.54;450296;1253;143467;-65
2023/02/24 17:10:46;;;;;;;12.40;8.70;;;;;;;3.90;95.01;97734.63;449935;1252;197916;-63
2023/02/24 17:20:52;;;;;;;12.50;8.70;;;;;;;3.70;94.99;97728.70;450382;1253;142307;-63
2023/02/24 17:30:58;;;;;;;11.80;8.30;;;;;;;3.66;95.22;97723.58;449605;1253;142256;-63
2023/02/24 17:41:04;;;;;;;9.70;7.20;;;;;;;3.53;94.11;97723.38;450332;1253;142639;-62
2023/02/24 17:51:14;;;;;;;14.30;9.30;;;;;;;3.40;94.29;97707.91;450394;1253;145060;-62
2023/02/24 18:01:19;;;;;;;15.30;9.10;;;;;;;3.29;93.98;97689.80;449605;1252;142512;-63
2023/02/24 18:11:25;;;;;;;47.60;21.20;;;;;;;3.22;94.47;97671.56;450213;1253;142163;-63
2023/02/24 18:21:31;;;;;;;41.60;18.10;;;;;;;3.16;94.69;97654.78;450299;1253;142482;-63
2023/02/24 18:31:37;;;;;;;23.20;14.20;;;;;;;3.16;94.77;97637.38;447251;1254;141686;-63
2023/02/24 18:41:43;;;;;;;46.90;26.30;;;;;;;3.07;95.08;97632.06;450159;1253;142518;-65
2023/02/24 18:51:49;;;;;;;47.60;26.50;;;;;;;2.90;94.85;97618.14;449422;1253;147458;-63
2023/02/24 19:01:55;;;;;;;61.10;32.50;;;;;;;2.57;95.00;97611.38;449611;1252;193457;-63
2023/02/24 19:12:01;;;;;;;47.30;26.80;;;;;;;2.32;95.75;97593.40;450194;1254;142376;-64
2023/02/24 19:22:07;;;;;;;27.50;16.40;;;;;;;2.16;96.10;97589.71;449356;1254;143530;-65
2023/02/24 19:32:13;;;;;;;32.10;19.30;;;;;;;2.20;96.63;97580.51;450039;1253;141939;-64
2023/02/24 19:42:19;;;;;;;30.20;17.90;;;;;;;2.36;96.41;97566.05;450127;1256;142673;-63
2023/02/24 19:52:24;;;;;;;28.00;14.90;;;;;;;2.51;96.62;97548.17;440577;1254;181325;-63
2023/02/24 20:02:30;;;;;;;24.00;14.80;;;;;;;2.60;96.27;97539.11;436387;1254;145333;-64
2023/02/24 20:12:36;;;;;;;20.00;12.60;;;;;;;2.63;96.18;97538.77;443491;1254;143018;-63
2023/02/24 20:22:42;;;;;;;17.30;11.80;;;;;;;2.67;96.20;97537.10;444192;1255;198685;-63
2023/02/24 20:32:48;;;;;;;22.10;13.50;;;;;;;2.72;96.49;97533.16;433057;1257;143119;-64
2023/02/24 20:42:54;;;;;;;10.70;8.70;;;;;;;2.75;96.00;97516.06;437609;1254;186893;-65
2023/02/24 20:53:02;;;;;;;12.10;9.40;;;;;;;2.76;95.64;97505.42;446107;1253;142557;-63
2023/02/24 21:03:11;;;;;;;15.70;8.60;;;;;;;2.73;95.01;97496.12;447342;1253;143668;-64
2023/02/24 21:13:19;;;;;;;13.00;7.80;;;;;;;2.67;95.14;97480.98;437925;1254;141367;-64
2023/02/24 21:23:25;;;;;;;12.00;7.50;;;;;;;2.63;95.32;97464.30;433632;1254;142131;-64
2023/02/24 21:33:31;;;;;;;16.20;8.90;;;;;;;2.58;95.22;97433.38;438921;1254;142769;-62
2023/02/24 21:43:37;;;;;;;13.10;8.20;;;;;;;2.49;95.05;97406.67;438854;1254;142314;-63
2023/02/24 21:53:46;;;;;;;14.30;8.40;;;;;;;2.43;94.99;97394.66;434134;1256;141985;-63
2023/02/24 22:03:54;;;;;;;15.10;11.00;;;;;;;2.45;95.32;97389.30;449487;1253;142847;-65
2023/02/24 22:14:00;;;;;;;17.70;10.90;;;;;;;2.46;95.48;97372.46;441129;1254;198195;-63
2023/02/24 22:24:06;;;;;;;16.30;10.20;;;;;;;2.42;95.93;97363.77;449471;1253;142330;-64
2023/02/24 22:34:13;;;;;;;19.10;10.30;;;;;;;2.39;96.55;97351.87;449430;1252;142672;-64
2023/02/24 22:44:19;;;;;;;14.70;10.30;;;;;;;2.35;96.60;97336.63;450212;1252;142514;-64
2023/02/24 22:54:25;;;;;;;16.80;10.50;;;;;;;2.30;96.97;97322.13;445873;1253;141779;-64
2023/02/24 23:04:33;;;;;;;15.10;9.40;;;;;;;2.22;97.22;97306.05;444827;1252;142446;-64
2023/02/24 23:14:39;;;;;;;15.30;10.80;;;;;;;2.11;97.47;97294.50;432899;1254;142838;-62
2023/02/24 23:24:45;;;;;;;15.70;10.70;;;;;;;2.02;97.66;97290.57;447863;1251;142575;-64
2023/02/24 23:34:52;;;;;;;19.60;11.10;;;;;;;1.99;97.86;97285.64;444517;1252;143514;-64
2023/02/24 23:44:58;;;;;;;15.00;10.40;;;;;;;1.97;97.91;97273.34;450259;1252;141562;-64
2023/02/24 23:55:05;;;;;;;15.00;9.80;;;;;;;2.02;98.44;97259.92;449327;1253;144009;-64
